sensor_id;sensor_type;location;lat;lon;timestamp;P1;durP1;ratioP1;P2;durP2;ratioP2
71360;SDS011;59166;48.908;1.870;2023-08-31T00:00:48;7.70;;;2.20;;
71360;SDS011;59166;48.908;1.870;2023-08-31T00:05:49;10.80;;;2.60;;
71360;SDS011;59166;48.908;1.870;2023-08-31T00:10:56;10.60;;;2.30;;
71360;SDS011;59166;48.908;1.870;2023-08-31T00:15:57;9.85;;;2.15;;
71360;SDS011;59166;48.908;1.870;2023-08-31T00:20:58;9.23;;;2.20;;
71360;SDS011;59166;48.908;1.870;2023-08-31T00:26:00;7.72;;;2.30;;
71360;SDS011;59166;48.908;1.870;2023-08-31T00:31:00;8.03;;;2.33;;
71360;SDS011;59166;48.908;1.870;2023-08-31T00:36:01;11.70;;;2.20;;
71360;SDS011;59166;48.908;1.870;2023-08-31T00:41:03;8.70;;;2.27;;
71360;SDS011;59166;48.908;1.870;2023-08-31T00:46:04;10.13;;;2.47;;
71360;SDS011;59166;48.908;1.870;2023-08-31T00:51:05;9.10;;;2.37;;
71360;SDS011;59166;48.908;1.870;2023-08-31T00:56:07;8.77;;;2.33;;
71360;SDS011;59166;48.908;1.870;2023-08-31T01:01:10;8.73;;;2.63;;
71360;SDS011;59166;48.908;1.870;2023-08-31T01:06:18;8.23;;;2.20;;
71360;SDS011;59166;48.908;1.870;2023-08-31T01:11:29;8.50;;;2.30;;
71360;SDS011;59166;48.908;1.870;2023-08-31T01:16:34;7.80;;;2.30;;
71360;SDS011;59166;48.908;1.870;2023-08-31T01:21:37;6.93;;;2.00;;
71360;SDS011;59166;48.908;1.870;2023-08-31T01:26:41;9.37;;;2.20;;
71360;SDS011;59166;48.908;1.870;2023-08-31T01:31:42;8.40;;;2.40;;
71360;SDS011;59166;48.908;1.870;2023-08-31T01:36:43;8.13;;;2.20;;
71360;SDS011;59166;48.908;1.870;2023-08-31T01:41:48;9.35;;;2.30;;
71360;SDS011;59166;48.908;1.870;2023-08-31T01:46:57;8.10;;;2.40;;
71360;SDS011;59166;48.908;1.870;2023-08-31T01:52:04;8.70;;;2.40;;
71360;SDS011;59166;48.908;1.870;2023-08-31T01:57:06;9.90;;;2.43;;
71360;SDS011;59166;48.908;1.870;2023-08-31T02:02:07;9.07;;;2.22;;
71360;SDS011;59166;48.908;1.870;2023-08-31T02:07:07;10.30;;;2.33;;
71360;SDS011;59166;48.908;1.870;2023-08-31T02:12:09;10.43;;;2.60;;
71360;SDS011;59166;48.908;1.870;2023-08-31T02:17:10;7.03;;;2.20;;
71360;SDS011;59166;48.908;1.870;2023-08-31T02:22:10;8.63;;;2.40;;
71360;SDS011;59166;48.908;1.870;2023-08-31T02:27:12;9.37;;;2.70;;
71360;SDS011;59166;48.908;1.870;2023-08-31T02:32:13;10.63;;;2.50;;
71360;SDS011;59166;48.908;1.870;2023-08-31T02:37:14;9.40;;;2.40;;
71360;SDS011;59166;48.908;1.870;2023-08-31T02:42:16;9.27;;;2.50;;
71360;SDS011;59166;48.908;1.870;2023-08-31T02:47:16;10.38;;;2.40;;
71360;SDS011;59166;48.908;1.870;2023-08-31T02:52:17;10.37;;;2.40;;
71360;SDS011;59166;48.908;1.870;2023-08-31T02:57:19;9.17;;;2.23;;
71360;SDS011;59166;48.908;1.870;2023-08-31T03:02:20;8.60;;;2.20;;
71360;SDS011;59166;48.908;1.870;2023-08-31T03:07:21;8.63;;;2.37;;
71360;SDS011;59166;48.908;1.870;2023-08-31T03:12:23;9.70;;;2.38;;
71360;SDS011;59166;48.908;1.870;2023-08-31T03:17:23;10.27;;;2.70;;
71360;SDS011;59166;48.908;1.870;2023-08-31T03:22:24;8.13;;;2.40;;
71360;SDS011;59166;48.908;1.870;2023-08-31T03:27:26;9.77;;;2.40;;
71360;SDS011;59166;48.908;1.870;2023-08-31T03:32:27;13.40;;;2.58;;
71360;SDS011;59166;48.908;1.870;2023-08-31T03:37:27;7.97;;;2.40;;
71360;SDS011;59166;48.908;1.870;2023-08-31T03:42:29;8.60;;;2.30;;
71360;SDS011;59166;48.908;1.870;2023-08-31T03:47:30;10.02;;;2.25;;
71360;SDS011;59166;48.908;1.870;2023-08-31T03:52:31;9.77;;;2.40;;
71360;SDS011;59166;48.908;1.870;2023-08-31T03:57:33;10.20;;;2.67;;
71360;SDS011;59166;48.908;1.870;2023-08-31T04:02:33;8.70;;;2.53;;
71360;SDS011;59166;48.908;1.870;2023-08-31T04:07:34;9.80;;;2.30;;
71360;SDS011;59166;48.908;1.870;2023-08-31T04:12:36;10.40;;;2.47;;
71360;SDS011;59166;48.908;1.870;2023-08-31T04:17:37;9.30;;;2.50;;
71360;SDS011;59166;48.908;1.870;2023-08-31T04:22:38;8.50;;;2.50;;
71360;SDS011;59166;48.908;1.870;2023-08-31T04:27:40;8.10;;;2.40;;
71360;SDS011;59166;48.908;1.870;2023-08-31T04:32:40;11.25;;;2.70;;
71360;SDS011;59166;48.908;1.870;2023-08-31T04:37:41;6.93;;;2.13;;
71360;SDS011;59166;48.908;1.870;2023-08-31T04:42:43;9.20;;;2.60;;
71360;SDS011;59166;48.908;1.870;2023-08-31T04:47:44;8.57;;;2.72;;
71360;SDS011;59166;48.908;1.870;2023-08-31T04:52:44;9.80;;;2.53;;
71360;SDS011;59166;48.908;1.870;2023-08-31T04:57:47;10.00;;;2.80;;
71360;SDS011;59166;48.908;1.870;2023-08-31T05:02:47;11.90;;;2.53;;
71360;SDS011;59166;48.908;1.870;2023-08-31T05:07:48;13.98;;;2.67;;
71360;SDS011;59166;48.908;1.870;2023-08-31T05:12:50;8.53;;;2.53;;
71360;SDS011;59166;48.908;1.870;2023-08-31T05:17:51;10.87;;;2.80;;
71360;SDS011;59166;48.908;1.870;2023-08-31T05:22:51;9.73;;;2.43;;
71360;SDS011;59166;48.908;1.870;2023-08-31T05:27:53;9.23;;;2.53;;
71360;SDS011;59166;48.908;1.870;2023-08-31T05:32:54;9.27;;;2.30;;
71360;SDS011;59166;48.908;1.870;2023-08-31T05:37:54;9.67;;;2.33;;
71360;SDS011;59166;48.908;1.870;2023-08-31T05:42:56;9.60;;;2.50;;
71360;SDS011;59166;48.908;1.870;2023-08-31T05:47:57;16.55;;;6.97;;
71360;SDS011;59166;48.908;1.870;2023-08-31T05:52:58;14.07;;;6.63;;
71360;SDS011;59166;48.908;1.870;2023-08-31T05:58:00;10.97;;;3.50;;
71360;SDS011;59166;48.908;1.870;2023-08-31T06:03:00;21.90;;;8.43;;
71360;SDS011;59166;48.908;1.870;2023-08-31T06:08:01;48.93;;;19.97;;
71360;SDS011;59166;48.908;1.870;2023-08-31T06:13:03;18.57;;;7.83;;
71360;SDS011;59166;48.908;1.870;2023-08-31T06:18:04;13.73;;;5.57;;
71360;SDS011;59166;48.908;1.870;2023-08-31T06:23:05;9.80;;;2.67;;
71360;SDS011;59166;48.908;1.870;2023-08-31T06:28:07;10.13;;;2.40;;
71360;SDS011;59166;48.908;1.870;2023-08-31T06:33:08;9.70;;;2.47;;
71360;SDS011;59166;48.908;1.870;2023-08-31T06:38:08;11.27;;;2.67;;
71360;SDS011;59166;48.908;1.870;2023-08-31T06:43:11;10.33;;;2.90;;
71360;SDS011;59166;48.908;1.870;2023-08-31T06:48:11;11.07;;;3.03;;
71360;SDS011;59166;48.908;1.870;2023-08-31T06:53:12;11.83;;;2.87;;
71360;SDS011;59166;48.908;1.870;2023-08-31T06:58:14;8.77;;;2.88;;
71360;SDS011;59166;48.908;1.870;2023-08-31T07:03:14;10.87;;;3.13;;
71360;SDS011;59166;48.908;1.870;2023-08-31T07:08:15;12.45;;;2.78;;
71360;SDS011;59166;48.908;1.870;2023-08-31T07:13:17;13.57;;;2.87;;
71360;SDS011;59166;48.908;1.870;2023-08-31T07:18:18;10.02;;;2.60;;
71360;SDS011;59166;48.908;1.870;2023-08-31T07:23:18;8.77;;;2.40;;
71360;SDS011;59166;48.908;1.870;2023-08-31T07:28:20;9.93;;;2.60;;
71360;SDS011;59166;48.908;1.870;2023-08-31T07:33:21;10.43;;;2.40;;
71360;SDS011;59166;48.908;1.870;2023-08-31T07:38:22;10.63;;;2.60;;
71360;SDS011;59166;48.908;1.870;2023-08-31T07:43:24;11.20;;;2.65;;
71360;SDS011;59166;48.908;1.870;2023-08-31T07:48:25;9.53;;;2.60;;
71360;SDS011;59166;48.908;1.870;2023-08-31T07:53:26;9.57;;;2.40;;
71360;SDS011;59166;48.908;1.870;2023-08-31T07:58:28;9.70;;;2.40;;
71360;SDS011;59166;48.908;1.870;2023-08-31T08:03:28;12.20;;;2.42;;
71360;SDS011;59166;48.908;1.870;2023-08-31T08:08:29;9.10;;;2.00;;
71360;SDS011;59166;48.908;1.870;2023-08-31T08:13:31;10.03;;;2.03;;
71360;SDS011;59166;48.908;1.870;2023-08-31T08:18:32;10.60;;;2.22;;
71360;SDS011;59166;48.908;1.870;2023-08-31T08:23:32;9.90;;;2.13;;
71360;SDS011;59166;48.908;1.870;2023-08-31T08:28:34;9.85;;;2.20;;
71360;SDS011;59166;48.908;1.870;2023-08-31T08:33:35;6.33;;;1.50;;
71360;SDS011;59166;48.908;1.870;2023-08-31T08:38:36;9.55;;;2.03;;
71360;SDS011;59166;48.908;1.870;2023-08-31T08:43:38;9.13;;;2.10;;
71360;SDS011;59166;48.908;1.870;2023-08-31T08:48:43;10.33;;;2.20;;
71360;SDS011;59166;48.908;1.870;2023-08-31T08:53:46;10.90;;;2.30;;
71360;SDS011;59166;48.908;1.870;2023-08-31T08:58:52;8.88;;;2.35;;
71360;SDS011;59166;48.908;1.870;2023-08-31T09:03:52;9.35;;;2.35;;
71360;SDS011;59166;48.908;1.870;2023-08-31T09:08:53;9.53;;;2.10;;
71360;SDS011;59166;48.908;1.870;2023-08-31T09:13:56;9.90;;;2.28;;
71360;SDS011;59166;48.908;1.870;2023-08-31T09:18:57;10.33;;;2.53;;
71360;SDS011;59166;48.908;1.870;2023-08-31T09:23:58;10.18;;;2.70;;
71360;SDS011;59166;48.908;1.870;2023-08-31T09:29:01;8.32;;;2.22;;
71360;SDS011;59166;48.908;1.870;2023-08-31T09:34:01;10.63;;;2.30;;
71360;SDS011;59166;48.908;1.870;2023-08-31T09:39:02;9.98;;;2.30;;
71360;SDS011;59166;48.908;1.870;2023-08-31T09:44:15;10.97;;;2.50;;
71360;SDS011;59166;48.908;1.870;2023-08-31T09:49:17;10.27;;;2.28;;
71360;SDS011;59166;48.908;1.870;2023-08-31T09:54:20;13.20;;;2.97;;
71360;SDS011;59166;48.908;1.870;2023-08-31T09:59:22;10.13;;;2.60;;
71360;SDS011;59166;48.908;1.870;2023-08-31T10:04:23;9.52;;;2.40;;
71360;SDS011;59166;48.908;1.870;2023-08-31T10:09:24;7.32;;;2.20;;
71360;SDS011;59166;48.908;1.870;2023-08-31T10:14:27;10.40;;;2.33;;
71360;SDS011;59166;48.908;1.870;2023-08-31T10:19:29;9.50;;;2.38;;
71360;SDS011;59166;48.908;1.870;2023-08-31T10:30:15;12.67;;;2.70;;
71360;SDS011;59166;48.908;1.870;2023-08-31T10:35:24;10.88;;;2.40;;
71360;SDS011;59166;48.908;1.870;2023-08-31T10:40:41;9.77;;;2.40;;
71360;SDS011;59166;48.908;1.870;2023-08-31T10:45:46;12.27;;;2.60;;
71360;SDS011;59166;48.908;1.870;2023-08-31T10:50:46;9.68;;;2.38;;
71360;SDS011;59166;48.908;1.870;2023-08-31T10:55:50;8.77;;;2.23;;
71360;SDS011;59166;48.908;1.870;2023-08-31T11:00:52;9.55;;;2.40;;
71360;SDS011;59166;48.908;1.870;2023-08-31T11:05:53;9.80;;;2.20;;
71360;SDS011;59166;48.908;1.870;2023-08-31T11:10:54;9.60;;;2.20;;
71360;SDS011;59166;48.908;1.870;2023-08-31T11:15:56;6.47;;;1.83;;
71360;SDS011;59166;48.908;1.870;2023-08-31T11:20:56;7.60;;;1.87;;
71360;SDS011;59166;48.908;1.870;2023-08-31T11:25:57;7.72;;;1.70;;
71360;SDS011;59166;48.908;1.870;2023-08-31T11:31:00;6.97;;;1.70;;
71360;SDS011;59166;48.908;1.870;2023-08-31T11:36:00;9.98;;;1.80;;
71360;SDS011;59166;48.908;1.870;2023-08-31T11:41:01;5.73;;;1.70;;
71360;SDS011;59166;48.908;1.870;2023-08-31T11:46:03;5.40;;;1.60;;
71360;SDS011;59166;48.908;1.870;2023-08-31T11:51:04;7.20;;;1.70;;
71360;SDS011;59166;48.908;1.870;2023-08-31T11:56:05;6.75;;;1.92;;
71360;SDS011;59166;48.908;1.870;2023-08-31T12:01:08;6.73;;;1.97;;
71360;SDS011;59166;48.908;1.870;2023-08-31T12:06:09;10.25;;;2.47;;
71360;SDS011;59166;48.908;1.870;2023-08-31T12:11:09;8.50;;;2.00;;
71360;SDS011;59166;48.908;1.870;2023-08-31T12:16:14;8.05;;;1.80;;
71360;SDS011;59166;48.908;1.870;2023-08-31T12:21:15;7.30;;;2.10;;
71360;SDS011;59166;48.908;1.870;2023-08-31T12:26:19;8.57;;;1.88;;
71360;SDS011;59166;48.908;1.870;2023-08-31T12:31:21;6.83;;;1.70;;
71360;SDS011;59166;48.908;1.870;2023-08-31T12:36:22;6.75;;;1.90;;
71360;SDS011;59166;48.908;1.870;2023-08-31T12:41:23;7.35;;;1.90;;
71360;SDS011;59166;48.908;1.870;2023-08-31T12:46:25;7.17;;;1.80;;
71360;SDS011;59166;48.908;1.870;2023-08-31T12:51:26;8.63;;;1.95;;
71360;SDS011;59166;48.908;1.870;2023-08-31T12:56:28;8.90;;;2.20;;
71360;SDS011;59166;48.908;1.870;2023-08-31T13:01:31;7.95;;;2.10;;
71360;SDS011;59166;48.908;1.870;2023-08-31T13:06:31;9.40;;;2.05;;
71360;SDS011;59166;48.908;1.870;2023-08-31T13:11:32;8.33;;;2.00;;
71360;SDS011;59166;48.908;1.870;2023-08-31T13:16:34;9.50;;;2.22;;
71360;SDS011;59166;48.908;1.870;2023-08-31T13:21:35;8.97;;;2.30;;
71360;SDS011;59166;48.908;1.870;2023-08-31T13:26:36;10.13;;;2.38;;
71360;SDS011;59166;48.908;1.870;2023-08-31T13:31:38;8.13;;;2.60;;
71360;SDS011;59166;48.908;1.870;2023-08-31T13:36:39;8.50;;;2.75;;
71360;SDS011;59166;48.908;1.870;2023-08-31T13:41:39;8.83;;;2.53;;
71360;SDS011;59166;48.908;1.870;2023-08-31T13:46:42;7.90;;;2.60;;
71360;SDS011;59166;48.908;1.870;2023-08-31T13:51:42;7.87;;;2.20;;
71360;SDS011;59166;48.908;1.870;2023-08-31T13:56:43;6.57;;;2.50;;
71360;SDS011;59166;48.908;1.870;2023-08-31T14:01:45;5.57;;;2.00;;
71360;SDS011;59166;48.908;1.870;2023-08-31T14:06:46;6.10;;;1.90;;
71360;SDS011;59166;48.908;1.870;2023-08-31T14:11:46;4.67;;;1.60;;
71360;SDS011;59166;48.908;1.870;2023-08-31T14:16:48;4.33;;;1.40;;
71360;SDS011;59166;48.908;1.870;2023-08-31T14:21:49;3.15;;;1.30;;
71360;SDS011;59166;48.908;1.870;2023-08-31T14:26:50;3.80;;;1.30;;
71360;SDS011;59166;48.908;1.870;2023-08-31T14:31:52;4.60;;;1.60;;
71360;SDS011;59166;48.908;1.870;2023-08-31T14:36:53;4.85;;;1.60;;
71360;SDS011;59166;48.908;1.870;2023-08-31T14:41:53;4.33;;;1.53;;
71360;SDS011;59166;48.908;1.870;2023-08-31T14:46:55;3.73;;;1.40;;
71360;SDS011;59166;48.908;1.870;2023-08-31T14:51:56;3.83;;;1.30;;
71360;SDS011;59166;48.908;1.870;2023-08-31T14:56:56;3.93;;;1.40;;
71360;SDS011;59166;48.908;1.870;2023-08-31T15:01:58;3.75;;;1.40;;
71360;SDS011;59166;48.908;1.870;2023-08-31T15:06:59;4.63;;;1.30;;
71360;SDS011;59166;48.908;1.870;2023-08-31T15:12:00;4.43;;;1.50;;
71360;SDS011;59166;48.908;1.870;2023-08-31T15:17:02;4.63;;;1.43;;
71360;SDS011;59166;48.908;1.870;2023-08-31T15:22:03;4.18;;;1.38;;
71360;SDS011;59166;48.908;1.870;2023-08-31T15:27:04;3.70;;;1.40;;
71360;SDS011;59166;48.908;1.870;2023-08-31T15:32:06;4.23;;;1.60;;
71360;SDS011;59166;48.908;1.870;2023-08-31T15:37:06;6.27;;;2.10;;
71360;SDS011;59166;48.908;1.870;2023-08-31T15:42:07;5.32;;;1.90;;
71360;SDS011;59166;48.908;1.870;2023-08-31T15:47:09;7.47;;;2.30;;
71360;SDS011;59166;48.908;1.870;2023-08-31T15:52:10;6.32;;;2.20;;
71360;SDS011;59166;48.908;1.870;2023-08-31T15:57:11;6.75;;;2.28;;
71360;SDS011;59166;48.908;1.870;2023-08-31T16:02:14;6.97;;;2.20;;
71360;SDS011;59166;48.908;1.870;2023-08-31T16:07:15;6.63;;;2.50;;
71360;SDS011;59166;48.908;1.870;2023-08-31T16:12:15;6.33;;;2.40;;
71360;SDS011;59166;48.908;1.870;2023-08-31T16:17:18;6.05;;;2.20;;
71360;SDS011;59166;48.908;1.870;2023-08-31T16:22:19;6.33;;;2.33;;
71360;SDS011;59166;48.908;1.870;2023-08-31T16:27:19;6.80;;;2.55;;
71360;SDS011;59166;48.908;1.870;2023-08-31T16:32:21;8.20;;;2.70;;
71360;SDS011;59166;48.908;1.870;2023-08-31T16:37:22;6.22;;;2.55;;
71360;SDS011;59166;48.908;1.870;2023-08-31T16:42:23;5.90;;;2.30;;
71360;SDS011;59166;48.908;1.870;2023-08-31T16:47:25;7.30;;;2.53;;
71360;SDS011;59166;48.908;1.870;2023-08-31T16:52:25;7.43;;;2.60;;
71360;SDS011;59166;48.908;1.870;2023-08-31T16:57:26;6.03;;;2.13;;
71360;SDS011;59166;48.908;1.870;2023-08-31T17:02:28;6.03;;;2.30;;
71360;SDS011;59166;48.908;1.870;2023-08-31T17:07:29;5.93;;;2.65;;
71360;SDS011;59166;48.908;1.870;2023-08-31T17:12:29;6.73;;;2.50;;
71360;SDS011;59166;48.908;1.870;2023-08-31T17:17:31;8.20;;;2.40;;
71360;SDS011;59166;48.908;1.870;2023-08-31T17:22:32;5.95;;;2.30;;
71360;SDS011;59166;48.908;1.870;2023-08-31T17:27:33;5.60;;;2.30;;
71360;SDS011;59166;48.908;1.870;2023-08-31T17:32:35;6.88;;;2.40;;
71360;SDS011;59166;48.908;1.870;2023-08-31T17:37:36;7.90;;;2.13;;
71360;SDS011;59166;48.908;1.870;2023-08-31T17:42:37;5.53;;;1.80;;
71360;SDS011;59166;48.908;1.870;2023-08-31T17:47:39;4.40;;;1.53;;
71360;SDS011;59166;48.908;1.870;2023-08-31T17:52:40;3.75;;;1.63;;
71360;SDS011;59166;48.908;1.870;2023-08-31T17:57:41;3.80;;;1.47;;
71360;SDS011;59166;48.908;1.870;2023-08-31T18:02:43;4.28;;;1.60;;
71360;SDS011;59166;48.908;1.870;2023-08-31T18:07:43;5.33;;;1.90;;
71360;SDS011;59166;48.908;1.870;2023-08-31T18:12:44;4.70;;;1.48;;
71360;SDS011;59166;48.908;1.870;2023-08-31T18:17:46;5.07;;;1.70;;
71360;SDS011;59166;48.908;1.870;2023-08-31T18:22:47;4.40;;;1.63;;
71360;SDS011;59166;48.908;1.870;2023-08-31T18:27:47;4.40;;;1.60;;
71360;SDS011;59166;48.908;1.870;2023-08-31T18:32:49;4.77;;;1.57;;
71360;SDS011;59166;48.908;1.870;2023-08-31T18:37:50;5.35;;;1.85;;
71360;SDS011;59166;48.908;1.870;2023-08-31T18:42:50;4.83;;;1.80;;
71360;SDS011;59166;48.908;1.870;2023-08-31T18:47:53;5.40;;;1.90;;
71360;SDS011;59166;48.908;1.870;2023-08-31T18:52:53;5.07;;;1.90;;
71360;SDS011;59166;48.908;1.870;2023-08-31T18:57:54;5.28;;;2.00;;
71360;SDS011;59166;48.908;1.870;2023-08-31T19:02:56;5.20;;;1.90;;
71360;SDS011;59166;48.908;1.870;2023-08-31T19:07:57;6.10;;;2.10;;
71360;SDS011;59166;48.908;1.870;2023-08-31T19:12:58;5.80;;;2.13;;
71360;SDS011;59166;48.908;1.870;2023-08-31T19:18:00;5.78;;;2.00;;
71360;SDS011;59166;48.908;1.870;2023-08-31T19:23:00;5.40;;;2.00;;
71360;SDS011;59166;48.908;1.870;2023-08-31T19:28:02;5.93;;;1.88;;
71360;SDS011;59166;48.908;1.870;2023-08-31T19:33:05;3.97;;;1.70;;
71360;SDS011;59166;48.908;1.870;2023-08-31T19:38:06;5.03;;;2.00;;
71360;SDS011;59166;48.908;1.870;2023-08-31T19:43:06;5.38;;;1.90;;
71360;SDS011;59166;48.908;1.870;2023-08-31T19:48:09;4.97;;;1.90;;
71360;SDS011;59166;48.908;1.870;2023-08-31T19:53:11;5.43;;;2.00;;
71360;SDS011;59166;48.908;1.870;2023-08-31T19:58:11;5.53;;;2.00;;
71360;SDS011;59166;48.908;1.870;2023-08-31T20:03:13;5.50;;;2.13;;
71360;SDS011;59166;48.908;1.870;2023-08-31T20:08:14;9.60;;;3.60;;
71360;SDS011;59166;48.908;1.870;2023-08-31T20:13:15;8.70;;;4.20;;
71360;SDS011;59166;48.908;1.870;2023-08-31T20:18:18;10.95;;;5.22;;
71360;SDS011;59166;48.908;1.870;2023-08-31T20:23:20;11.40;;;5.60;;
71360;SDS011;59166;48.908;1.870;2023-08-31T20:28:21;14.95;;;6.93;;
71360;SDS011;59166;48.908;1.870;2023-08-31T20:33:23;10.80;;;3.80;;
71360;SDS011;59166;48.908;1.870;2023-08-31T20:38:24;8.18;;;2.70;;
71360;SDS011;59166;48.908;1.870;2023-08-31T20:43:26;6.73;;;2.33;;
71360;SDS011;59166;48.908;1.870;2023-08-31T20:48:28;6.73;;;2.30;;
71360;SDS011;59166;48.908;1.870;2023-08-31T20:53:29;6.95;;;2.22;;
71360;SDS011;59166;48.908;1.870;2023-08-31T20:58:30;6.27;;;2.10;;
71360;SDS011;59166;48.908;1.870;2023-08-31T21:03:32;5.72;;;1.90;;
71360;SDS011;59166;48.908;1.870;2023-08-31T21:08:33;6.97;;;2.03;;
71360;SDS011;59166;48.908;1.870;2023-08-31T21:13:34;6.43;;;1.85;;
71360;SDS011;59166;48.908;1.870;2023-08-31T21:18:36;4.30;;;1.58;;
71360;SDS011;59166;48.908;1.870;2023-08-31T21:23:37;5.27;;;1.60;;
71360;SDS011;59166;48.908;1.870;2023-08-31T21:28:37;4.35;;;1.25;;
71360;SDS011;59166;48.908;1.870;2023-08-31T21:33:39;5.57;;;1.50;;
71360;SDS011;59166;48.908;1.870;2023-08-31T21:38:40;5.15;;;1.40;;
71360;SDS011;59166;48.908;1.870;2023-08-31T21:43:42;6.50;;;1.50;;
71360;SDS011;59166;48.908;1.870;2023-08-31T21:48:44;5.35;;;1.30;;
71360;SDS011;59166;48.908;1.870;2023-08-31T21:53:44;6.07;;;1.40;;
71360;SDS011;59166;48.908;1.870;2023-08-31T21:58:45;5.10;;;1.50;;
71360;SDS011;59166;48.908;1.870;2023-08-31T22:03:47;5.97;;;1.43;;
71360;SDS011;59166;48.908;1.870;2023-08-31T22:08:48;5.30;;;1.33;;
71360;SDS011;59166;48.908;1.870;2023-08-31T22:13:48;3.93;;;1.30;;
71360;SDS011;59166;48.908;1.870;2023-08-31T22:18:51;5.30;;;1.65;;
71360;SDS011;59166;48.908;1.870;2023-08-31T22:23:51;4.43;;;1.50;;
71360;SDS011;59166;48.908;1.870;2023-08-31T22:28:52;5.28;;;1.50;;
71360;SDS011;59166;48.908;1.870;2023-08-31T22:33:54;5.40;;;1.30;;
71360;SDS011;59166;48.908;1.870;2023-08-31T22:38:55;3.65;;;1.27;;
71360;SDS011;59166;48.908;1.870;2023-08-31T22:43:55;4.27;;;1.37;;
71360;SDS011;59166;48.908;1.870;2023-08-31T22:48:57;6.20;;;1.60;;
71360;SDS011;59166;48.908;1.870;2023-08-31T22:53:58;5.17;;;1.33;;
71360;SDS011;59166;48.908;1.870;2023-08-31T22:58:59;5.20;;;1.50;;
71360;SDS011;59166;48.908;1.870;2023-08-31T23:04:01;4.57;;;1.40;;
71360;SDS011;59166;48.908;1.870;2023-08-31T23:09:01;5.57;;;1.40;;
71360;SDS011;59166;48.908;1.870;2023-08-31T23:14:03;4.97;;;1.30;;
71360;SDS011;59166;48.908;1.870;2023-08-31T23:19:06;5.32;;;1.50;;
71360;SDS011;59166;48.908;1.870;2023-08-31T23:24:06;7.20;;;1.70;;
71360;SDS011;59166;48.908;1.870;2023-08-31T23:29:07;10.53;;;1.73;;
71360;SDS011;59166;48.908;1.870;2023-08-31T23:34:09;7.27;;;1.60;;
71360;SDS011;59166;48.908;1.870;2023-08-31T23:39:10;6.75;;;1.50;;
71360;SDS011;59166;48.908;1.870;2023-08-31T23:44:10;5.73;;;1.50;;
71360;SDS011;59166;48.908;1.870;2023-08-31T23:49:12;8.10;;;1.77;;
71360;SDS011;59166;48.908;1.870;2023-08-31T23:54:13;6.27;;;1.70;;
71360;SDS011;59166;48.908;1.870;2023-08-31T23:59:14;7.13;;;1.92;;
